Time;durP1;ratioP1;P1;durP2;ratioP2;P2;SDS_P1;SDS_P2;PMS_P1;PMS_P2;Temp;Humidity;BMP_temperature;BMP_pressure;BME280_temperature;BME280_humidity;BME280_pressure;Samples;Min_cycle;Max_cycle;Signal;HPM_P1;HPM_P2
2021/12/13 00:00:42;;;;;;;21.35;15.40;;;;;;;;;;5048786;28;20222;-76
2021/12/13 00:03:13;;;;;;;17.00;12.35;;;;;;;;;;5048241;28;20195;-76
2021/12/13 00:05:42;;;;;;;17.27;12.50;;;;;;;;;;5051427;28;20302;-75
2021/12/13 00:08:12;;;;;;;16.52;11.65;;;;;;;;;;5048746;28;20198;-76
2021/12/13 00:10:41;;;;;;;17.48;12.73;;;;;;;;;;5052228;28;20194;-76
2021/12/13 00:13:11;;;;;;;18.35;15.43;;;;;;;;;;5051783;28;20198;-75
2021/12/13 00:15:41;;;;;;;17.83;12.98;;;;;;;;;;5047367;28;20214;-76
2021/12/13 00:18:09;;;;;;;14.63;11.25;;;;;;;;;;5051751;28;20578;-77
2021/12/13 00:20:39;;;;;;;16.17;12.90;;;;;;;;;;5051525;28;20199;-76
2021/12/13 00:23:12;;;;;;;15.57;12.77;;;;;;;;;;5048682;28;20199;-76
2021/12/13 00:25:45;;;;;;;17.23;13.05;;;;;;;;;;5041957;28;20202;-76
2021/12/13 00:28:14;;;;;;;15.88;11.93;;;;;;;;;;5050916;28;20206;-77
2021/12/13 00:30:43;;;;;;;19.63;13.63;;;;;;;;;;5047052;28;20194;-77
2021/12/13 00:33:14;;;;;;;17.05;12.32;;;;;;;;;;5050331;28;20203;-77
2021/12/13 00:35:44;;;;;;;18.50;12.95;;;;;;;;;;5048603;28;20579;-78
2021/12/13 00:38:14;;;;;;;19.48;14.77;;;;;;;;;;5040440;28;20567;-78
2021/12/13 00:40:44;;;;;;;18.00;13.35;;;;;;;;;;5031806;28;20702;-77
2021/12/13 00:43:15;;;;;;;17.85;14.07;;;;;;;;;;5049782;28;20586;-77
2021/12/13 00:45:49;;;;;;;23.35;14.02;;;;;;;;;;5050321;28;20203;-78
2021/12/13 00:48:17;;;;;;;22.58;13.93;;;;;;;;;;5047005;28;20206;-77
2021/12/13 00:50:47;;;;;;;20.23;13.60;;;;;;;;;;5051439;28;20195;-79
2021/12/13 00:53:17;;;;;;;14.73;11.32;;;;;;;;;;5045418;28;20191;-78
2021/12/13 00:55:46;;;;;;;19.60;14.52;;;;;;;;;;5050513;28;20215;-77
2021/12/13 00:58:14;;;;;;;18.10;13.32;;;;;;;;;;5051262;28;21465;-77
2021/12/13 01:00:43;;;;;;;17.85;13.77;;;;;;;;;;5050688;28;20215;-77
2021/12/13 01:03:12;;;;;;;19.25;15.43;;;;;;;;;;5046307;28;20202;-77
2021/12/13 01:05:44;;;;;;;19.10;14.68;;;;;;;;;;5050919;28;20643;-77
2021/12/13 01:08:14;;;;;;;18.85;13.80;;;;;;;;;;5043176;28;20195;-78
2021/12/13 01:11:11;;;;;;;16.00;12.02;;;;;;;;;;5050300;28;20226;-78
2021/12/13 01:13:44;;;;;;;16.55;13.85;;;;;;;;;;5050588;28;20670;-78
2021/12/13 01:16:20;;;;;;;16.38;13.02;;;;;;;;;;5040186;28;20246;-77
2021/12/13 01:19:02;;;;;;;17.17;13.70;;;;;;;;;;5040183;28;20198;-77
2021/12/13 01:21:39;;;;;;;15.80;12.73;;;;;;;;;;5051083;28;20284;-77
2021/12/13 01:24:10;;;;;;;14.57;12.50;;;;;;;;;;5041815;28;20198;-77
2021/12/13 01:26:40;;;;;;;16.95;14.00;;;;;;;;;;5039810;28;20199;-77
2021/12/13 01:29:10;;;;;;;19.35;13.75;;;;;;;;;;5049557;28;20695;-77
2021/12/13 01:31:39;;;;;;;16.52;13.45;;;;;;;;;;5044470;28;20791;-77
2021/12/13 01:34:08;;;;;;;17.40;12.93;;;;;;;;;;5038437;28;20202;-77
2021/12/13 01:36:42;;;;;;;18.48;14.07;;;;;;;;;;5050597;28;20227;-77
2021/12/13 01:39:11;;;;;;;15.35;11.45;;;;;;;;;;5033498;28;20199;-77
2021/12/13 01:41:40;;;;;;;17.40;13.82;;;;;;;;;;5042206;28;20203;-77
2021/12/13 01:44:11;;;;;;;16.02;13.73;;;;;;;;;;5050015;28;20203;-78
2021/12/13 01:46:39;;;;;;;16.40;14.02;;;;;;;;;;5049426;28;20207;-78
2021/12/13 01:49:07;;;;;;;18.55;13.95;;;;;;;;;;5050417;28;20206;-77
2021/12/13 01:51:34;;;;;;;16.52;12.43;;;;;;;;;;5050285;28;20203;-77
2021/12/13 01:54:03;;;;;;;15.10;11.95;;;;;;;;;;5036301;28;20207;-78
2021/12/13 01:56:40;;;;;;;15.02;12.50;;;;;;;;;;5050218;28;20211;-77
2021/12/13 01:59:28;;;;;;;17.42;13.63;;;;;;;;;;5049519;28;20210;-78
2021/12/13 02:01:56;;;;;;;22.63;15.23;;;;;;;;;;5048795;28;20202;-77
2021/12/13 02:04:23;;;;;;;18.70;13.48;;;;;;;;;;5050174;28;20650;-78
2021/12/13 02:06:52;;;;;;;20.52;14.23;;;;;;;;;;5045664;28;20198;-78
2021/12/13 02:09:21;;;;;;;17.02;13.27;;;;;;;;;;5046928;28;20199;-78
2021/12/13 02:11:50;;;;;;;17.08;13.82;;;;;;;;;;5049672;28;20199;-76
2021/12/13 02:14:24;;;;;;;17.30;14.05;;;;;;;;;;5050046;28;20195;-77
2021/12/13 02:16:56;;;;;;;21.42;16.52;;;;;;;;;;5048499;28;20571;-77
2021/12/13 02:19:25;;;;;;;13.75;11.70;;;;;;;;;;5048665;28;20211;-78
2021/12/13 02:21:58;;;;;;;19.38;13.10;;;;;;;;;;5050848;28;20199;-77
2021/12/13 02:24:26;;;;;;;17.98;13.50;;;;;;;;;;5043062;28;20206;-77
2021/12/13 02:26:57;;;;;;;20.38;15.32;;;;;;;;;;5050344;28;20199;-77
2021/12/13 02:29:30;;;;;;;19.23;14.82;;;;;;;;;;5049231;28;20202;-77
2021/12/13 02:32:00;;;;;;;21.05;16.15;;;;;;;;;;5041004;28;20687;-77
2021/12/13 02:34:29;;;;;;;18.27;14.55;;;;;;;;;;5037245;28;20257;-77
2021/12/13 02:36:56;;;;;;;19.65;15.40;;;;;;;;;;5049832;28;20256;-78
2021/12/13 02:39:25;;;;;;;21.63;14.45;;;;;;;;;;5032944;28;20203;-77
2021/12/13 02:41:54;;;;;;;17.00;14.95;;;;;;;;;;5049326;28;20215;-77
2021/12/13 02:44:23;;;;;;;17.95;15.05;;;;;;;;;;5049225;28;20237;-76
2021/12/13 02:46:51;;;;;;;21.77;16.80;;;;;;;;;;5049048;28;20639;-78
2021/12/13 02:49:19;;;;;;;17.08;13.73;;;;;;;;;;5046581;28;20199;-77
2021/12/13 02:51:48;;;;;;;18.48;15.07;;;;;;;;;;5049883;28;20284;-78
2021/12/13 02:54:17;;;;;;;19.30;14.73;;;;;;;;;;5041672;28;20203;-77
2021/12/13 02:56:46;;;;;;;19.05;14.05;;;;;;;;;;5048795;28;20215;-77
2021/12/13 02:59:15;;;;;;;18.58;15.30;;;;;;;;;;5047576;28;20705;-78
2021/12/13 03:01:44;;;;;;;23.83;15.70;;;;;;;;;;5044697;28;20203;-77
2021/12/13 03:04:13;;;;;;;18.52;15.70;;;;;;;;;;5049869;28;20241;-79
2021/12/13 03:06:42;;;;;;;18.27;15.30;;;;;;;;;;5049107;28;20195;-78
2021/12/13 03:09:11;;;;;;;18.35;14.10;;;;;;;;;;5047372;28;20221;-78
2021/12/13 03:11:38;;;;;;;17.77;14.00;;;;;;;;;;5053061;28;20650;-78
2021/12/13 03:14:08;;;;;;;20.48;17.38;;;;;;;;;;5052798;28;20221;-76
2021/12/13 03:16:40;;;;;;;18.10;15.05;;;;;;;;;;5049322;28;20215;-77
2021/12/13 03:19:09;;;;;;;19.35;16.63;;;;;;;;;;5053298;28;20571;-77
2021/12/13 03:22:04;;;;;;;21.52;16.73;;;;;;;;;;5053723;28;20680;-73
2021/12/13 03:24:38;;;;;;;22.45;16.17;;;;;;;;;;5041506;28;20655;-74
2021/12/13 03:27:24;;;;;;;22.20;18.35;;;;;;;;;;5053570;28;20194;-74
2021/12/13 03:29:55;;;;;;;21.73;16.70;;;;;;;;;;5052673;28;20280;-72
2021/12/13 03:32:24;;;;;;;24.15;16.52;;;;;;;;;;5035736;28;20229;-73
2021/12/13 03:34:56;;;;;;;21.80;15.95;;;;;;;;;;5047920;28;20198;-72
2021/12/13 03:37:25;;;;;;;18.50;15.60;;;;;;;;;;5051523;28;20413;-72
2021/12/13 03:39:54;;;;;;;21.25;15.73;;;;;;;;;;5053329;28;20194;-73
2021/12/13 03:42:23;;;;;;;19.88;15.15;;;;;;;;;;5052544;28;20229;-72
2021/12/13 03:44:53;;;;;;;20.45;17.42;;;;;;;;;;5052595;28;20187;-72
2021/12/13 03:47:21;;;;;;;23.80;18.38;;;;;;;;;;5046773;28;20566;-72
2021/12/13 03:49:52;;;;;;;21.25;16.95;;;;;;;;;;5052637;28;20570;-74
2021/12/13 03:52:21;;;;;;;21.70;16.27;;;;;;;;;;5050706;28;20194;-73
2021/12/13 03:54:48;;;;;;;22.30;17.05;;;;;;;;;;5041173;28;20206;-72
2021/12/13 03:57:19;;;;;;;22.77;17.70;;;;;;;;;;5052706;28;20207;-73
2021/12/13 03:59:47;;;;;;;21.02;17.77;;;;;;;;;;5052130;28;20585;-73
2021/12/13 04:02:17;;;;;;;20.67;17.27;;;;;;;;;;5048796;28;20301;-73
2021/12/13 04:04:46;;;;;;;25.85;16.50;;;;;;;;;;5052803;28;21229;-72
2021/12/13 04:07:16;;;;;;;21.73;16.90;;;;;;;;;;5050046;28;20191;-74
2021/12/13 04:09:45;;;;;;;19.38;15.00;;;;;;;;;;5052004;28;20195;-74
2021/12/13 04:12:14;;;;;;;20.02;14.02;;;;;;;;;;5052098;28;20214;-73
2021/12/13 04:14:43;;;;;;;21.77;17.00;;;;;;;;;;5052578;28;20734;-74
2021/12/13 04:17:23;;;;;;;20.27;14.75;;;;;;;;;;5051377;28;20218;-73
2021/12/13 04:19:53;;;;;;;18.17;13.07;;;;;;;;;;5052423;28;20187;-73
2021/12/13 04:22:24;;;;;;;19.67;14.52;;;;;;;;;;5049354;28;20199;-72
2021/12/13 04:24:53;;;;;;;22.95;16.05;;;;;;;;;;5043460;28;20685;-72
2021/12/13 04:27:22;;;;;;;23.17;16.63;;;;;;;;;;5052160;28;20195;-73
2021/12/13 04:29:51;;;;;;;18.55;16.55;;;;;;;;;;5050188;28;20658;-75
2021/12/13 04:32:19;;;;;;;18.83;15.18;;;;;;;;;;5055775;28;20555;-73
2021/12/13 04:34:49;;;;;;;20.25;15.05;;;;;;;;;;5055580;28;20190;-74
2021/12/13 04:37:17;;;;;;;16.30;13.63;;;;;;;;;;5062753;28;20222;-73
2021/12/13 04:39:49;;;;;;;17.33;13.90;;;;;;;;;;5056699;28;20194;-73
2021/12/13 04:42:17;;;;;;;15.68;12.60;;;;;;;;;;5049138;28;20197;-74
2021/12/13 04:44:46;;;;;;;14.82;12.02;;;;;;;;;;5059165;28;20199;-73
2021/12/13 04:47:16;;;;;;;17.67;13.82;;;;;;;;;;5052175;28;20289;-74
2021/12/13 04:49:46;;;;;;;18.85;14.57;;;;;;;;;;5052292;28;20658;-74
2021/12/13 04:52:14;;;;;;;15.65;12.18;;;;;;;;;;5060548;28;20547;-73
2021/12/13 04:54:43;;;;;;;14.23;12.70;;;;;;;;;;5051623;28;20706;-73
2021/12/13 04:57:11;;;;;;;17.88;13.77;;;;;;;;;;5051156;28;20211;-75
2021/12/13 04:59:39;;;;;;;15.15;12.65;;;;;;;;;;5048640;28;20217;-73
2021/12/13 05:02:08;;;;;;;15.25;12.43;;;;;;;;;;5051661;28;20205;-73
2021/12/13 05:04:35;;;;;;;15.93;12.25;;;;;;;;;;5065760;28;20208;-73
2021/12/13 05:07:05;;;;;;;13.90;12.40;;;;;;;;;;5049468;28;20221;-73
2021/12/13 05:09:32;;;;;;;13.77;11.88;;;;;;;;;;5041026;28;20210;-73
2021/12/13 05:12:05;;;;;;;17.60;13.45;;;;;;;;;;5051462;28;20574;-73
2021/12/13 05:14:35;;;;;;;15.90;12.13;;;;;;;;;;5057717;28;20208;-75
2021/12/13 05:17:07;;;;;;;17.25;12.73;;;;;;;;;;5051014;28;20215;-72
2021/12/13 05:19:37;;;;;;;15.35;12.02;;;;;;;;;;5052236;28;20198;-75
2021/12/13 05:22:07;;;;;;;13.73;11.52;;;;;;;;;;5050981;28;20203;-75
2021/12/13 05:24:36;;;;;;;13.80;11.80;;;;;;;;;;5050582;28;20202;-72
2021/12/13 05:27:07;;;;;;;14.23;11.60;;;;;;;;;;5050058;28;20200;-74
2021/12/13 05:29:37;;;;;;;12.88;10.85;;;;;;;;;;5056930;28;20201;-73
2021/12/13 05:32:07;;;;;;;14.32;10.65;;;;;;;;;;5053397;28;20285;-74
2021/12/13 05:34:36;;;;;;;12.10;10.88;;;;;;;;;;5054557;28;20191;-75
2021/12/13 05:37:06;;;;;;;15.98;11.30;;;;;;;;;;5056633;28;20229;-74
2021/12/13 05:39:35;;;;;;;15.65;11.20;;;;;;;;;;5060389;28;20243;-74
2021/12/13 05:42:04;;;;;;;12.45;11.05;;;;;;;;;;5050230;28;20199;-75
2021/12/13 05:44:34;;;;;;;10.60;9.43;;;;;;;;;;5058829;28;20202;-75
2021/12/13 05:47:04;;;;;;;14.38;9.90;;;;;;;;;;5057019;28;20201;-75
2021/12/13 05:49:33;;;;;;;13.00;11.55;;;;;;;;;;5058569;28;20206;-76
2021/12/13 05:52:05;;;;;;;14.00;11.15;;;;;;;;;;5056620;28;20284;-74
2021/12/13 05:54:34;;;;;;;12.95;10.55;;;;;;;;;;5050632;28;20647;-73
2021/12/13 05:57:02;;;;;;;11.65;9.93;;;;;;;;;;5055744;28;20215;-73
2021/12/13 05:59:31;;;;;;;12.25;9.80;;;;;;;;;;5060173;28;20219;-74
2021/12/13 06:02:06;;;;;;;9.45;7.80;;;;;;;;;;5051791;28;20191;-74
2021/12/13 06:04:36;;;;;;;10.73;9.40;;;;;;;;;;5058045;28;20669;-74
2021/12/13 06:07:12;;;;;;;10.57;8.38;;;;;;;;;;5050324;28;20191;-74
2021/12/13 06:09:44;;;;;;;16.17;8.43;;;;;;;;;;5058041;28;20535;-73
2021/12/13 06:12:14;;;;;;;9.50;8.50;;;;;;;;;;5060086;28;20493;-73
2021/12/13 06:14:42;;;;;;;9.15;8.20;;;;;;;;;;5052519;28;20199;-73
2021/12/13 06:17:14;;;;;;;10.38;9.25;;;;;;;;;;5058653;28;20273;-73
2021/12/13 06:19:46;;;;;;;11.30;8.35;;;;;;;;;;5057331;28;20187;-72
2021/12/13 06:22:15;;;;;;;8.20;7.35;;;;;;;;;;5064607;28;20264;-72
2021/12/13 06:24:43;;;;;;;10.30;7.80;;;;;;;;;;5045805;28;20609;-74
2021/12/13 06:27:16;;;;;;;10.70;7.97;;;;;;;;;;5049551;28;20559;-74
2021/12/13 06:30:04;;;;;;;8.95;8.05;;;;;;;;;;5051842;28;20198;-73
2021/12/13 06:32:39;;;;;;;9.80;7.78;;;;;;;;;;5049988;28;20190;-74
2021/12/13 06:35:25;;;;;;;8.25;7.35;;;;;;;;;;5059471;28;20198;-73
2021/12/13 06:37:52;;;;;;;7.57;6.90;;;;;;;;;;5058877;28;20250;-73
2021/12/13 06:40:27;;;;;;;7.97;7.20;;;;;;;;;;5053320;28;20198;-73
2021/12/13 06:42:54;;;;;;;9.27;8.38;;;;;;;;;;5048336;28;20670;-74
2021/12/13 06:45:23;;;;;;;6.75;6.03;;;;;;;;;;5059016;28;20198;-73
2021/12/13 06:47:53;;;;;;;8.55;6.22;;;;;;;;;;5058880;28;20588;-73
2021/12/13 06:50:22;;;;;;;7.15;6.25;;;;;;;;;;5055960;28;20513;-73
2021/12/13 06:52:49;;;;;;;9.00;7.43;;;;;;;;;;5060057;28;20668;-75
2021/12/13 06:55:18;;;;;;;8.23;7.32;;;;;;;;;;5057798;28;20203;-74
2021/12/13 06:57:47;;;;;;;7.50;6.68;;;;;;;;;;5053943;28;20222;-76
2021/12/13 07:00:19;;;;;;;8.35;6.28;;;;;;;;;;5052620;28;20218;-75
2021/12/13 07:02:48;;;;;;;7.68;6.88;;;;;;;;;;5057543;28;20202;-75
2021/12/13 07:05:18;;;;;;;7.20;6.47;;;;;;;;;;5057802;28;20223;-77
2021/12/13 07:07:51;;;;;;;7.75;6.82;;;;;;;;;;5050247;28;20206;-73
2021/12/13 07:10:20;;;;;;;6.68;6.00;;;;;;;;;;5061662;28;20198;-74
2021/12/13 07:12:49;;;;;;;6.38;5.80;;;;;;;;;;5052233;28;20558;-74
2021/12/13 07:15:28;;;;;;;7.40;6.60;;;;;;;;;;5058048;28;20213;-74
2021/12/13 07:18:02;;;;;;;8.55;6.97;;;;;;;;;;5050277;28;20229;-75
2021/12/13 07:20:36;;;;;;;7.32;6.60;;;;;;;;;;5061836;28;20193;-74
2021/12/13 07:23:03;;;;;;;6.90;6.20;;;;;;;;;;5062010;28;20206;-74
2021/12/13 07:25:36;;;;;;;7.22;6.45;;;;;;;;;;5056531;28;20199;-75
2021/12/13 07:28:04;;;;;;;6.15;5.45;;;;;;;;;;5051593;28;20210;-75
2021/12/13 07:30:33;;;;;;;8.15;6.43;;;;;;;;;;5061016;28;20205;-76
2021/12/13 07:33:01;;;;;;;5.90;4.93;;;;;;;;;;5058515;28;20650;-76
2021/12/13 07:35:31;;;;;;;5.95;5.20;;;;;;;;;;5063935;28;20613;-77
2021/12/13 07:38:01;;;;;;;6.30;5.20;;;;;;;;;;5050443;28;20695;-78
2021/12/13 07:40:31;;;;;;;5.90;5.20;;;;;;;;;;5048296;28;20199;-75
2021/12/13 07:43:01;;;;;;;6.97;5.57;;;;;;;;;;5050665;28;20198;-74
2021/12/13 07:45:31;;;;;;;6.00;5.45;;;;;;;;;;5052413;28;20211;-74
2021/12/13 07:47:59;;;;;;;5.15;4.47;;;;;;;;;;5048343;28;20202;-74
2021/12/13 07:50:27;;;;;;;5.13;4.68;;;;;;;;;;5052833;28;20198;-74
2021/12/13 07:52:55;;;;;;;6.07;5.55;;;;;;;;;;5051527;28;20191;-75
2021/12/13 07:55:26;;;;;;;6.45;5.80;;;;;;;;;;5049841;28;20215;-73
2021/12/13 07:57:54;;;;;;;10.00;5.43;;;;;;;;;;5049150;28;20220;-73
2021/12/13 08:00:23;;;;;;;5.95;5.45;;;;;;;;;;5059338;28;20666;-74
2021/12/13 08:02:54;;;;;;;5.20;4.70;;;;;;;;;;5051958;28;20202;-73
2021/12/13 08:05:24;;;;;;;5.80;4.40;;;;;;;;;;5055875;28;20193;-74
2021/12/13 08:07:54;;;;;;;4.65;4.10;;;;;;;;;;5051378;28;20576;-73
2021/12/13 08:10:22;;;;;;;5.90;4.60;;;;;;;;;;5049758;28;20195;-74
2021/12/13 08:12:53;;;;;;;7.07;6.38;;;;;;;;;;5065909;28;20210;-74
2021/12/13 08:15:21;;;;;;;5.15;4.40;;;;;;;;;;5058533;28;20205;-75
2021/12/13 08:17:50;;;;;;;6.70;5.07;;;;;;;;;;5053663;28;20219;-75
2021/12/13 08:20:21;;;;;;;6.45;5.07;;;;;;;;;;5060405;28;20223;-73
2021/12/13 08:22:49;;;;;;;4.82;4.32;;;;;;;;;;5056401;28;20202;-74
2021/12/13 08:25:19;;;;;;;4.65;4.22;;;;;;;;;;5054144;28;20704;-74
2021/12/13 08:27:53;;;;;;;5.20;4.13;;;;;;;;;;5055383;28;20209;-75
2021/12/13 08:30:21;;;;;;;4.55;4.15;;;;;;;;;;5058815;28;20201;-76
2021/12/13 08:32:55;;;;;;;5.10;4.60;;;;;;;;;;5059108;28;20195;-75
2021/12/13 08:35:23;;;;;;;5.15;4.53;;;;;;;;;;5051627;28;20202;-76
2021/12/13 08:37:55;;;;;;;4.47;4.07;;;;;;;;;;5049948;28;20218;-76
2021/12/13 08:40:23;;;;;;;4.20;3.80;;;;;;;;;;5059919;28;20512;-76
2021/12/13 08:42:53;;;;;;;4.97;4.35;;;;;;;;;;5053553;28;20211;-75
2021/12/13 08:45:27;;;;;;;8.13;6.43;;;;;;;;;;5053550;28;20206;-72
2021/12/13 08:47:55;;;;;;;8.25;6.70;;;;;;;;;;5049610;28;20510;-74
2021/12/13 08:50:24;;;;;;;13.32;7.03;;;;;;;;;;5051851;28;20211;-75
2021/12/13 08:52:56;;;;;;;9.85;6.82;;;;;;;;;;5051294;28;20202;-75
2021/12/13 08:55:26;;;;;;;10.05;6.30;;;;;;;;;;5051105;28;20754;-76
2021/12/13 08:57:58;;;;;;;7.28;6.57;;;;;;;;;;5047140;28;20210;-76
2021/12/13 09:00:35;;;;;;;5.97;5.45;;;;;;;;;;5053197;28;21016;-75
2021/12/13 09:03:12;;;;;;;6.00;5.35;;;;;;;;;;5058976;28;20230;-75
2021/12/13 09:05:40;;;;;;;7.43;4.93;;;;;;;;;;5051577;28;20209;-75
2021/12/13 09:08:09;;;;;;;6.97;5.93;;;;;;;;;;5041715;28;20225;-76
2021/12/13 09:10:39;;;;;;;6.85;5.43;;;;;;;;;;5052842;28;20195;-75
2021/12/13 09:13:08;;;;;;;5.88;5.25;;;;;;;;;;5063212;28;20206;-75
2021/12/13 09:15:37;;;;;;;6.70;6.03;;;;;;;;;;5058767;28;20210;-76
2021/12/13 09:18:05;;;;;;;5.90;5.30;;;;;;;;;;5051342;28;20694;-75
2021/12/13 09:20:34;;;;;;;7.07;5.40;;;;;;;;;;5051047;28;20566;-75
2021/12/13 09:23:07;;;;;;;7.80;5.38;;;;;;;;;;5055165;28;20245;-75
2021/12/13 09:25:37;;;;;;;6.60;6.00;;;;;;;;;;5051806;28;20195;-75
2021/12/13 09:28:06;;;;;;;8.95;5.47;;;;;;;;;;5051173;28;20539;-77
2021/12/13 09:30:40;;;;;;;7.35;5.22;;;;;;;;;;5057249;28;20199;-76
2021/12/13 09:33:12;;;;;;;8.18;6.28;;;;;;;;;;5049015;28;20214;-75
2021/12/13 09:35:41;;;;;;;6.70;5.53;;;;;;;;;;5058259;28;20199;-75
2021/12/13 09:38:28;;;;;;;6.60;6.00;;;;;;;;;;5062857;28;20233;-77
2021/12/13 09:40:58;;;;;;;6.47;5.57;;;;;;;;;;5050651;28;20205;-76
2021/12/13 09:43:34;;;;;;;5.95;5.40;;;;;;;;;;5050799;28;21338;-75
2021/12/13 09:46:03;;;;;;;6.90;5.15;;;;;;;;;;5052560;28;20194;-75
2021/12/13 09:48:35;;;;;;;7.03;6.32;;;;;;;;;;5057472;28;20187;-76
2021/12/13 09:51:06;;;;;;;6.28;5.05;;;;;;;;;;5051043;28;20198;-71
2021/12/13 09:53:36;;;;;;;6.05;5.40;;;;;;;;;;5046726;28;20198;-72
2021/12/13 09:56:04;;;;;;;6.35;5.43;;;;;;;;;;5051602;28;20195;-76
2021/12/13 09:58:38;;;;;;;5.15;4.65;;;;;;;;;;5056788;28;20221;-76
2021/12/13 10:01:08;;;;;;;6.45;4.63;;;;;;;;;;5041104;28;20219;-76
2021/12/13 10:03:44;;;;;;;5.25;4.50;;;;;;;;;;5052210;28;20198;-76
2021/12/13 10:06:12;;;;;;;8.82;5.05;;;;;;;;;;5054868;28;20336;-76
2021/12/13 10:08:41;;;;;;;6.80;4.38;;;;;;;;;;5048524;28;20190;-77
2021/12/13 10:11:09;;;;;;;6.60;5.20;;;;;;;;;;5065349;28;20700;-76
2021/12/13 10:13:39;;;;;;;6.93;4.78;;;;;;;;;;5048815;28;20222;-78
2021/12/13 10:16:09;;;;;;;6.47;5.38;;;;;;;;;;5053230;28;20210;-76
2021/12/13 10:18:39;;;;;;;4.70;4.25;;;;;;;;;;5056069;28;20229;-76
2021/12/13 10:21:07;;;;;;;5.15;4.50;;;;;;;;;;5048753;28;20301;-77
2021/12/13 10:23:36;;;;;;;5.95;5.43;;;;;;;;;;5042824;28;20203;-77
2021/12/13 10:26:06;;;;;;;8.02;4.85;;;;;;;;;;5058896;28;20619;-76
2021/12/13 10:28:35;;;;;;;5.38;4.88;;;;;;;;;;5057088;28;20201;-77
2021/12/13 10:31:04;;;;;;;4.25;3.83;;;;;;;;;;5063303;28;20194;-75
2021/12/13 10:33:33;;;;;;;4.18;3.78;;;;;;;;;;5043439;28;20212;-77
2021/12/13 10:36:02;;;;;;;5.40;4.90;;;;;;;;;;5053385;28;20574;-77
2021/12/13 10:38:31;;;;;;;4.47;3.90;;;;;;;;;;5069681;28;20209;-77
2021/12/13 10:41:01;;;;;;;3.60;3.30;;;;;;;;;;5052921;28;20476;-76
2021/12/13 10:43:30;;;;;;;4.13;3.72;;;;;;;;;;5040228;28;20658;-76
2021/12/13 10:45:58;;;;;;;5.57;4.53;;;;;;;;;;5063903;28;20229;-76
2021/12/13 10:48:27;;;;;;;6.05;4.28;;;;;;;;;;5056571;28;20194;-76
2021/12/13 10:50:58;;;;;;;5.40;4.78;;;;;;;;;;5055592;28;20209;-76
2021/12/13 10:53:26;;;;;;;5.13;3.35;;;;;;;;;;5054680;28;20282;-76
2021/12/13 10:55:55;;;;;;;4.00;3.60;;;;;;;;;;5058372;28;20662;-77
2021/12/13 10:58:24;;;;;;;4.57;4.20;;;;;;;;;;5056591;28;20677;-76
2021/12/13 11:00:52;;;;;;;5.38;3.38;;;;;;;;;;5055017;28;20229;-77
2021/12/13 11:03:22;;;;;;;5.57;4.18;;;;;;;;;;5065418;28;20609;-77
2021/12/13 11:05:50;;;;;;;6.57;3.80;;;;;;;;;;5057297;28;20210;-76
2021/12/13 11:08:20;;;;;;;4.07;3.42;;;;;;;;;;5046728;28;20205;-76
2021/12/13 11:10:49;;;;;;;5.00;4.15;;;;;;;;;;5057511;28;20190;-76
2021/12/13 11:13:16;;;;;;;7.53;4.32;;;;;;;;;;5057027;28;20216;-76
2021/12/13 11:15:46;;;;;;;3.88;3.47;;;;;;;;;;5053218;28;20577;-76
2021/12/13 11:18:16;;;;;;;4.05;3.47;;;;;;;;;;5068725;28;20198;-77
2021/12/13 11:20:45;;;;;;;3.67;3.33;;;;;;;;;;5037980;28;20667;-77
2021/12/13 11:23:14;;;;;;;10.48;6.25;;;;;;;;;;5057270;28;20199;-77
2021/12/13 11:25:43;;;;;;;6.28;5.68;;;;;;;;;;5059304;28;20202;-78
2021/12/13 11:28:11;;;;;;;5.72;5.13;;;;;;;;;;5056695;28;20183;-76
2021/12/13 11:30:39;;;;;;;8.07;5.22;;;;;;;;;;5046967;28;20202;-77
2021/12/13 11:33:47;;;;;;;5.47;4.90;;;;;;;;;;5061270;28;20201;-78
2021/12/13 11:36:30;;;;;;;6.05;4.60;;;;;;;;;;5043267;28;20578;-75
2021/12/13 11:39:19;;;;;;;6.40;4.07;;;;;;;;;;5047621;28;20577;-78
2021/12/13 11:41:58;;;;;;;8.40;4.97;;;;;;;;;;5058652;28;20193;-78
2021/12/13 11:44:35;;;;;;;8.75;4.72;;;;;;;;;;5058617;28;20276;-77
2021/12/13 11:47:15;;;;;;;6.47;4.82;;;;;;;;;;5049943;28;20621;-77
2021/12/13 11:49:50;;;;;;;5.25;4.75;;;;;;;;;;5035897;28;20562;-77
2021/12/13 11:52:39;;;;;;;5.28;4.05;;;;;;;;;;5050791;28;20195;-77
2021/12/13 11:55:21;;;;;;;4.63;3.75;;;;;;;;;;5048488;28;20194;-76
2021/12/13 11:57:59;;;;;;;6.70;4.82;;;;;;;;;;5065610;28;20198;-77
2021/12/13 12:00:31;;;;;;;4.00;3.60;;;;;;;;;;5056487;28;20693;-77
2021/12/13 12:03:22;;;;;;;5.80;4.30;;;;;;;;;;5049351;28;20199;-77
2021/12/13 12:06:05;;;;;;;5.18;4.68;;;;;;;;;;5044471;28;20187;-76
2021/12/13 12:08:54;;;;;;;8.48;4.20;;;;;;;;;;5039811;28;20198;-79
2021/12/13 12:11:40;;;;;;;4.10;3.70;;;;;;;;;;5048881;28;20194;-77
2021/12/13 12:14:12;;;;;;;4.80;4.40;;;;;;;;;;5048748;28;20190;-76
2021/12/13 12:16:42;;;;;;;4.85;4.13;;;;;;;;;;5045711;28;20239;-76
2021/12/13 12:19:11;;;;;;;3.55;3.25;;;;;;;;;;5048960;28;20230;-77
2021/12/13 12:21:43;;;;;;;3.85;3.45;;;;;;;;;;5040852;28;20377;-76
2021/12/13 12:24:12;;;;;;;3.70;3.30;;;;;;;;;;5057054;28;20230;-76
2021/12/13 12:26:39;;;;;;;4.55;4.15;;;;;;;;;;5040418;28;20194;-76
2021/12/13 12:29:09;;;;;;;3.60;3.30;;;;;;;;;;5049705;28;20321;-77
2021/12/13 12:31:38;;;;;;;4.88;3.33;;;;;;;;;;5057793;28;20198;-77
2021/12/13 12:34:06;;;;;;;3.70;3.28;;;;;;;;;;5030533;28;20566;-77
2021/12/13 12:36:41;;;;;;;3.90;3.28;;;;;;;;;;5047332;28;20209;-78
2021/12/13 12:39:45;;;;;;;3.35;3.05;;;;;;;;;;5049737;28;20711;-77
2021/12/13 12:42:18;;;;;;;4.30;3.90;;;;;;;;;;5038586;28;20593;-77
2021/12/13 12:44:59;;;;;;;3.92;3.42;;;;;;;;;;5052158;28;20198;-78
2021/12/13 12:47:51;;;;;;;5.90;3.65;;;;;;;;;;5055338;28;20662;-78
2021/12/13 12:50:19;;;;;;;3.92;3.25;;;;;;;;;;5043705;28;20210;-76
2021/12/13 12:52:47;;;;;;;2.60;2.28;;;;;;;;;;5051052;28;20194;-78
2021/12/13 12:55:15;;;;;;;3.10;2.80;;;;;;;;;;5057021;28;20209;-78
2021/12/13 12:57:42;;;;;;;2.78;2.35;;;;;;;;;;5048709;28;20207;-77
2021/12/13 13:00:10;;;;;;;5.53;3.45;;;;;;;;;;5052642;28;20234;-78
2021/12/13 13:02:38;;;;;;;3.38;3.08;;;;;;;;;;5058652;28;20198;-78
2021/12/13 13:05:07;;;;;;;3.08;2.78;;;;;;;;;;5068424;28;20561;-78
2021/12/13 13:07:37;;;;;;;5.55;3.90;;;;;;;;;;5039167;28;20199;-78
2021/12/13 13:10:19;;;;;;;3.25;2.95;;;;;;;;;;5047245;28;20558;-78
2021/12/13 13:12:46;;;;;;;4.45;3.53;;;;;;;;;;5056755;28;20284;-77
2021/12/13 13:15:15;;;;;;;4.75;4.32;;;;;;;;;;5046956;28;20225;-78
2021/12/13 13:17:45;;;;;;;2.70;2.50;;;;;;;;;;5055123;28;20205;-77
2021/12/13 13:20:14;;;;;;;4.15;3.75;;;;;;;;;;5052581;28;20698;-78
2021/12/13 13:22:43;;;;;;;4.25;3.50;;;;;;;;;;5056476;28;20288;-77
2021/12/13 13:25:12;;;;;;;3.00;2.75;;;;;;;;;;5043307;28;20753;-79
2021/12/13 13:27:39;;;;;;;3.83;3.53;;;;;;;;;;5064982;28;20218;-79
2021/12/13 13:30:08;;;;;;;3.72;3.42;;;;;;;;;;5049403;28;20199;-79
2021/12/13 13:32:38;;;;;;;3.35;2.88;;;;;;;;;;5046900;28;20540;-78
2021/12/13 13:35:07;;;;;;;4.00;3.70;;;;;;;;;;5052144;28;20573;-77
2021/12/13 13:37:35;;;;;;;5.00;3.63;;;;;;;;;;5047107;28;20210;-77
2021/12/13 13:40:05;;;;;;;3.97;3.58;;;;;;;;;;5056261;28;20222;-78
2021/12/13 13:42:34;;;;;;;3.38;2.90;;;;;;;;;;5050886;28;20202;-76
2021/12/13 13:45:02;;;;;;;3.78;3.42;;;;;;;;;;5046648;28;20199;-76
2021/12/13 13:47:31;;;;;;;4.53;3.42;;;;;;;;;;5061688;28;20217;-77
2021/12/13 13:49:59;;;;;;;2.88;2.63;;;;;;;;;;5052613;28;20683;-79
2021/12/13 13:52:29;;;;;;;3.50;3.20;;;;;;;;;;5054078;28;20409;-78
2021/12/13 13:54:59;;;;;;;4.80;3.65;;;;;;;;;;5053662;28;20194;-78
2021/12/13 13:57:28;;;;;;;3.63;3.17;;;;;;;;;;5048482;28;20218;-78
2021/12/13 13:59:55;;;;;;;9.43;4.30;;;;;;;;;;5043859;28;20233;-78
2021/12/13 14:02:25;;;;;;;3.80;2.70;;;;;;;;;;5039435;28;20474;-77
2021/12/13 14:04:57;;;;;;;2.97;2.67;;;;;;;;;;5030002;28;20209;-76
2021/12/13 14:07:26;;;;;;;3.00;2.70;;;;;;;;;;5045933;28;20195;-78
2021/12/13 14:09:55;;;;;;;3.35;2.83;;;;;;;;;;5047710;28;20198;-79
2021/12/13 14:12:28;;;;;;;2.75;2.55;;;;;;;;;;5035052;28;20218;-77
2021/12/13 14:14:57;;;;;;;3.33;2.95;;;;;;;;;;5033578;28;20500;-77
2021/12/13 14:17:41;;;;;;;3.95;3.05;;;;;;;;;;5060208;28;20250;-77
2021/12/13 14:20:17;;;;;;;2.78;2.58;;;;;;;;;;5050972;28;20218;-78
2021/12/13 14:22:45;;;;;;;2.53;2.30;;;;;;;;;;5057184;28;20562;-77
2021/12/13 14:25:13;;;;;;;3.53;3.13;;;;;;;;;;5033345;28;20554;-78
2021/12/13 14:27:46;;;;;;;9.18;2.90;;;;;;;;;;5051970;28;20199;-77
2021/12/13 14:30:16;;;;;;;4.55;3.20;;;;;;;;;;5045096;28;20198;-78
2021/12/13 14:32:43;;;;;;;3.60;3.00;;;;;;;;;;5044034;28;20705;-78
2021/12/13 14:35:15;;;;;;;2.78;2.55;;;;;;;;;;5060676;28;20566;-76
2021/12/13 14:37:42;;;;;;;3.50;3.13;;;;;;;;;;5049458;28;20199;-78
2021/12/13 14:40:10;;;;;;;4.05;3.00;;;;;;;;;;5040724;28;20218;-77
2021/12/13 14:42:39;;;;;;;5.03;2.70;;;;;;;;;;5060594;28;20674;-77
2021/12/13 14:45:09;;;;;;;3.45;2.60;;;;;;;;;;5033115;28;20203;-76
2021/12/13 14:47:37;;;;;;;4.15;2.97;;;;;;;;;;5049040;28;20210;-77
2021/12/13 14:50:10;;;;;;;4.90;3.70;;;;;;;;;;5048428;28;20191;-78
2021/12/13 14:52:43;;;;;;;2.67;2.47;;;;;;;;;;5048239;28;20198;-77